sensor_id;sensor_type;location;lat;lon;timestamp;pressure;altitude;pressure_sealevel;temperature;humidity
818;BME280;391;51.052;6.954;2023-08-08T00:00:37;100837.44;;;14.62;93.54
818;BME280;391;51.052;6.954;2023-08-08T00:02:40;100831.22;;;14.55;94.01
818;BME280;391;51.052;6.954;2023-08-08T00:04:44;100838.28;;;14.58;93.69
818;BME280;391;51.052;6.954;2023-08-08T00:06:47;100832.13;;;14.57;94.20
818;BME280;391;51.052;6.954;2023-08-08T00:08:51;100825.91;;;14.52;94.03
818;BME280;391;51.052;6.954;2023-08-08T00:10:54;100832.00;;;14.48;94.14
818;BME280;391;51.052;6.954;2023-08-08T00:12:57;100820.53;;;14.43;94.78
818;BME280;391;51.052;6.954;2023-08-08T00:15:03;100825.84;;;14.46;94.18
818;BME280;391;51.052;6.954;2023-08-08T00:17:05;100817.88;;;14.40;94.90
818;BME280;391;51.052;6.954;2023-08-08T00:19:09;100816.94;;;14.35;95.15
818;BME280;391;51.052;6.954;2023-08-08T00:21:12;100815.22;;;14.36;94.96
818;BME280;391;51.052;6.954;2023-08-08T00:23:16;100808.06;;;14.30;94.77
818;BME280;391;51.052;6.954;2023-08-08T00:25:19;100812.47;;;14.31;95.19
818;BME280;391;51.052;6.954;2023-08-08T00:27:22;100809.81;;;14.29;95.37
818;BME280;391;51.052;6.954;2023-08-08T00:29:26;100816.78;;;14.27;95.67
818;BME280;391;51.052;6.954;2023-08-08T00:31:31;100813.19;;;14.21;96.14
818;BME280;391;51.052;6.954;2023-08-08T00:33:34;100819.28;;;14.20;96.01
818;BME280;391;51.052;6.954;2023-08-08T00:35:37;100822.75;;;14.16;96.16
818;BME280;391;51.052;6.954;2023-08-08T00:37:41;100816.63;;;14.17;96.41
818;BME280;391;51.052;6.954;2023-08-08T00:39:44;100805.22;;;14.13;96.43
818;BME280;391;51.052;6.954;2023-08-08T00:41:48;100820.06;;;14.13;96.62
818;BME280;391;51.052;6.954;2023-08-08T00:43:51;100818.25;;;14.10;96.66
818;BME280;391;51.052;6.954;2023-08-08T00:45:55;100809.50;;;14.07;96.96
818;BME280;391;51.052;6.954;2023-08-08T00:48:00;100812.91;;;14.04;96.92
818;BME280;391;51.052;6.954;2023-08-08T00:50:05;100789.94;;;13.88;97.17
818;BME280;391;51.052;6.954;2023-08-08T00:52:09;100808.50;;;14.02;96.53
818;BME280;391;51.052;6.954;2023-08-08T00:54:11;100808.47;;;13.99;96.77
818;BME280;391;51.052;6.954;2023-08-08T00:56:16;100803.25;;;14.00;96.28
818;BME280;391;51.052;6.954;2023-08-08T00:58:20;100779.44;;;13.88;96.42
818;BME280;391;51.052;6.954;2023-08-08T01:00:23;100803.28;;;14.02;96.02
818;BME280;391;51.052;6.954;2023-08-08T01:02:26;100806.75;;;14.01;96.04
818;BME280;391;51.052;6.954;2023-08-08T01:04:31;100795.22;;;13.91;96.10
818;BME280;391;51.052;6.954;2023-08-08T01:06:38;100814.75;;;14.08;95.47
818;BME280;391;51.052;6.954;2023-08-08T01:08:51;100811.94;;;13.98;95.89
818;BME280;391;51.052;6.954;2023-08-08T01:10:57;100817.09;;;13.92;96.27
818;BME280;391;51.052;6.954;2023-08-08T01:13:05;100804.03;;;13.95;95.83
818;BME280;391;51.052;6.954;2023-08-08T01:15:11;100815.44;;;13.97;96.32
818;BME280;391;51.052;6.954;2023-08-08T01:17:16;100811.09;;;13.99;96.18
818;BME280;391;51.052;6.954;2023-08-08T01:19:25;100812.91;;;14.04;96.04
818;BME280;391;51.052;6.954;2023-08-08T01:21:33;100811.97;;;13.99;96.60
818;BME280;391;51.052;6.954;2023-08-08T01:23:43;100808.56;;;14.05;96.91
818;BME280;391;51.052;6.954;2023-08-08T01:25:50;100810.34;;;14.07;94.85
818;BME280;391;51.052;6.954;2023-08-08T01:27:54;100808.66;;;14.11;94.45
818;BME280;391;51.052;6.954;2023-08-08T01:29:58;100810.53;;;14.18;93.51
818;BME280;391;51.052;6.954;2023-08-08T01:32:01;100807.06;;;14.20;93.21
818;BME280;391;51.052;6.954;2023-08-08T01:34:04;100804.53;;;14.26;92.76
818;BME280;391;51.052;6.954;2023-08-08T01:36:13;100793.06;;;14.18;93.38
818;BME280;391;51.052;6.954;2023-08-08T01:38:26;100740.09;;;13.84;92.69
818;BME280;391;51.052;6.954;2023-08-08T01:40:32;100783.38;;;14.13;92.78
818;BME280;391;51.052;6.954;2023-08-08T01:42:36;100800.13;;;14.22;93.08
818;BME280;391;51.052;6.954;2023-08-08T01:44:41;100801.00;;;14.23;92.82
818;BME280;391;51.052;6.954;2023-08-08T01:46:45;100763.16;;;14.06;92.74
818;BME280;391;51.052;6.954;2023-08-08T01:48:49;100789.66;;;14.25;92.47
818;BME280;391;51.052;6.954;2023-08-08T01:50:53;100801.00;;;14.23;92.75
818;BME280;391;51.052;6.954;2023-08-08T01:52:56;100792.22;;;14.21;92.98
818;BME280;391;51.052;6.954;2023-08-08T01:55:00;100786.06;;;14.20;93.24
818;BME280;391;51.052;6.954;2023-08-08T01:57:04;100787.81;;;14.18;92.98
818;BME280;391;51.052;6.954;2023-08-08T01:59:09;100793.06;;;14.20;93.17
818;BME280;391;51.052;6.954;2023-08-08T02:01:11;100794.84;;;14.21;93.16
818;BME280;391;51.052;6.954;2023-08-08T02:03:15;100796.56;;;14.19;93.19
818;BME280;391;51.052;6.954;2023-08-08T02:05:19;100805.28;;;14.18;93.42
818;BME280;391;51.052;6.954;2023-08-08T02:07:22;100793.09;;;14.21;92.89
818;BME280;391;51.052;6.954;2023-08-08T02:09:26;100800.03;;;14.18;93.15
818;BME280;391;51.052;6.954;2023-08-08T02:11:30;100707.44;;;13.63;93.66
818;BME280;391;51.052;6.954;2023-08-08T02:13:33;100793.81;;;14.10;93.86
818;BME280;391;51.052;6.954;2023-08-08T02:15:38;100785.94;;;14.11;93.45
818;BME280;391;51.052;6.954;2023-08-08T02:17:41;100750.75;;;13.94;93.27
818;BME280;391;51.052;6.954;2023-08-08T02:19:47;100772.75;;;14.04;94.14
818;BME280;391;51.052;6.954;2023-08-08T02:21:50;100774.47;;;14.03;93.79
818;BME280;391;51.052;6.954;2023-08-08T02:23:53;100771.81;;;14.00;93.64
818;BME280;391;51.052;6.954;2023-08-08T02:25:56;100766.56;;;14.02;93.73
818;BME280;391;51.052;6.954;2023-08-08T02:28:00;100767.50;;;14.04;94.08
818;BME280;391;51.052;6.954;2023-08-08T02:30:04;100762.22;;;14.02;94.13
818;BME280;391;51.052;6.954;2023-08-08T02:32:09;100758.72;;;14.02;94.11
818;BME280;391;51.052;6.954;2023-08-08T02:34:12;100756.06;;;14.00;94.12
818;BME280;391;51.052;6.954;2023-08-08T02:36:16;100748.13;;;13.96;94.68
818;BME280;391;51.052;6.954;2023-08-08T02:38:20;100748.97;;;13.95;94.37
818;BME280;391;51.052;6.954;2023-08-08T02:40:23;100750.75;;;13.94;94.45
818;BME280;391;51.052;6.954;2023-08-08T02:42:28;100745.56;;;13.99;94.13
818;BME280;391;51.052;6.954;2023-08-08T02:44:32;100750.78;;;13.97;93.99
818;BME280;391;51.052;6.954;2023-08-08T02:46:36;100746.31;;;13.92;94.33
818;BME280;391;51.052;6.954;2023-08-08T02:48:42;100739.31;;;13.91;94.38
818;BME280;391;51.052;6.954;2023-08-08T02:50:46;100746.31;;;13.92;94.43
818;BME280;391;51.052;6.954;2023-08-08T02:52:51;100747.16;;;13.89;94.43
818;BME280;391;51.052;6.954;2023-08-08T02:54:57;100746.31;;;13.92;94.37
818;BME280;391;51.052;6.954;2023-08-08T02:57:01;100748.88;;;13.87;94.59
818;BME280;391;51.052;6.954;2023-08-08T02:59:04;100745.38;;;13.87;94.28
818;BME280;391;51.052;6.954;2023-08-08T03:01:08;100756.66;;;13.83;94.64
818;BME280;391;51.052;6.954;2023-08-08T03:03:12;100745.31;;;13.84;94.70
818;BME280;391;51.052;6.954;2023-08-08T03:05:17;100665.16;;;13.41;94.49
818;BME280;391;51.052;6.954;2023-08-08T03:07:23;100737.38;;;13.77;95.37
818;BME280;391;51.052;6.954;2023-08-08T03:09:26;100736.44;;;13.75;95.40
818;BME280;391;51.052;6.954;2023-08-08T03:11:30;100731.25;;;13.78;94.87
818;BME280;391;51.052;6.954;2023-08-08T03:13:34;100733.03;;;13.78;94.88
818;BME280;391;51.052;6.954;2023-08-08T03:15:39;100733.78;;;13.71;95.54
818;BME280;391;51.052;6.954;2023-08-08T03:17:43;100732.94;;;13.72;95.77
818;BME280;391;51.052;6.954;2023-08-08T03:19:46;100726.84;;;13.74;95.13
818;BME280;391;51.052;6.954;2023-08-08T03:21:52;100729.41;;;13.71;95.61
818;BME280;391;51.052;6.954;2023-08-08T03:23:56;100732.03;;;13.73;95.38
818;BME280;391;51.052;6.954;2023-08-08T03:25:59;100717.97;;;13.65;96.15
818;BME280;391;51.052;6.954;2023-08-08T03:28:03;100710.94;;;13.64;96.07
818;BME280;391;51.052;6.954;2023-08-08T03:30:08;100723.19;;;13.66;96.09
818;BME280;391;51.052;6.954;2023-08-08T03:32:15;100718.84;;;13.65;96.38
818;BME280;391;51.052;6.954;2023-08-08T03:34:19;100729.19;;;13.59;97.11
818;BME280;391;51.052;6.954;2023-08-08T03:36:23;100730.13;;;13.63;96.52
818;BME280;391;51.052;6.954;2023-08-08T03:38:28;100723.16;;;13.63;96.91
818;BME280;391;51.052;6.954;2023-08-08T03:40:32;100724.94;;;13.66;96.78
818;BME280;391;51.052;6.954;2023-08-08T03:42:35;100729.31;;;13.65;96.96
818;BME280;391;51.052;6.954;2023-08-08T03:44:39;100715.25;;;13.60;97.35
818;BME280;391;51.052;6.954;2023-08-08T03:46:42;100725.72;;;13.60;97.59
818;BME280;391;51.052;6.954;2023-08-08T03:48:48;100718.75;;;13.61;97.75
818;BME280;391;51.052;6.954;2023-08-08T03:50:55;100696.72;;;13.48;97.90
818;BME280;391;51.052;6.954;2023-08-08T03:52:58;100729.19;;;13.59;98.40
818;BME280;391;51.052;6.954;2023-08-08T03:55:05;100718.66;;;13.56;98.55
818;BME280;391;51.052;6.954;2023-08-08T03:57:08;100721.28;;;13.56;99.02
818;BME280;391;51.052;6.954;2023-08-08T03:59:12;100727.44;;;13.58;98.78
818;BME280;391;51.052;6.954;2023-08-08T04:01:15;100726.50;;;13.55;99.32
818;BME280;391;51.052;6.954;2023-08-08T04:03:19;100728.25;;;13.53;99.73
818;BME280;391;51.052;6.954;2023-08-08T04:05:23;100735.97;;;13.45;100.00
818;BME280;391;51.052;6.954;2023-08-08T04:07:27;100732.50;;;13.48;100.00
818;BME280;391;51.052;6.954;2023-08-08T04:09:30;100729.94;;;13.49;100.00
818;BME280;391;51.052;6.954;2023-08-08T04:11:35;100735.22;;;13.52;100.00
818;BME280;391;51.052;6.954;2023-08-08T04:13:38;100736.00;;;13.50;100.00
818;BME280;391;51.052;6.954;2023-08-08T04:15:46;100749.19;;;13.53;100.00
818;BME280;391;51.052;6.954;2023-08-08T04:17:55;100755.28;;;13.52;100.00
818;BME280;391;51.052;6.954;2023-08-08T04:19:58;100746.53;;;13.51;100.00
818;BME280;391;51.052;6.954;2023-08-08T04:22:02;100721.78;;;13.34;100.00
818;BME280;391;51.052;6.954;2023-08-08T04:24:06;100738.63;;;13.50;100.00
818;BME280;391;51.052;6.954;2023-08-08T04:26:10;100738.56;;;13.45;100.00
818;BME280;391;51.052;6.954;2023-08-08T04:28:15;100733.38;;;13.48;100.00
818;BME280;391;51.052;6.954;2023-08-08T04:30:19;100731.59;;;13.46;100.00
818;BME280;391;51.052;6.954;2023-08-08T04:32:22;100726.31;;;13.44;100.00
818;BME280;391;51.052;6.954;2023-08-08T04:34:26;100731.56;;;13.43;100.00
818;BME280;391;51.052;6.954;2023-08-08T04:36:29;100728.84;;;13.37;100.00
818;BME280;391;51.052;6.954;2023-08-08T04:38:33;100714.66;;;13.25;100.00
818;BME280;391;51.052;6.954;2023-08-08T04:40:36;100734.03;;;13.35;100.00
818;BME280;391;51.052;6.954;2023-08-08T04:42:41;100725.25;;;13.32;100.00
818;BME280;391;51.052;6.954;2023-08-08T04:44:46;100736.59;;;13.32;100.00
818;BME280;391;51.052;6.954;2023-08-08T04:46:49;100737.50;;;13.34;100.00
818;BME280;391;51.052;6.954;2023-08-08T04:48:52;100734.03;;;13.34;100.00
818;BME280;391;51.052;6.954;2023-08-08T04:50:57;100737.47;;;13.33;100.00
818;BME280;391;51.052;6.954;2023-08-08T04:53:00;100728.06;;;13.42;100.00
818;BME280;391;51.052;6.954;2023-08-08T04:55:05;100734.13;;;13.41;100.00
818;BME280;391;51.052;6.954;2023-08-08T04:57:08;100726.13;;;13.32;100.00
818;BME280;391;51.052;6.954;2023-08-08T04:59:12;100733.19;;;13.38;100.00
818;BME280;391;51.052;6.954;2023-08-08T05:01:17;100732.34;;;13.39;100.00
818;BME280;391;51.052;6.954;2023-08-08T05:03:22;100723.66;;;13.40;100.00
818;BME280;391;51.052;6.954;2023-08-08T05:05:25;100714.97;;;13.44;100.00
818;BME280;391;51.052;6.954;2023-08-08T05:07:28;100717.63;;;13.45;100.00
818;BME280;391;51.052;6.954;2023-08-08T05:09:32;100680.72;;;13.32;100.00
818;BME280;391;51.052;6.954;2023-08-08T05:11:35;100701.91;;;13.45;100.00
818;BME280;391;51.052;6.954;2023-08-08T05:13:38;100718.59;;;13.52;100.00
818;BME280;391;51.052;6.954;2023-08-08T05:15:42;100709.03;;;13.54;100.00
818;BME280;391;51.052;6.954;2023-08-08T05:17:47;100710.81;;;13.55;100.00
818;BME280;391;51.052;6.954;2023-08-08T05:19:50;100689.72;;;13.47;100.00
818;BME280;391;51.052;6.954;2023-08-08T05:21:54;100708.22;;;13.59;100.00
818;BME280;391;51.052;6.954;2023-08-08T05:23:57;100705.66;;;13.61;100.00
818;BME280;391;51.052;6.954;2023-08-08T05:26:01;100704.00;;;13.67;100.00
818;BME280;391;51.052;6.954;2023-08-08T05:28:05;100695.28;;;13.67;100.00
818;BME280;391;51.052;6.954;2023-08-08T05:30:10;100709.34;;;13.73;100.00
818;BME280;391;51.052;6.954;2023-08-08T05:32:13;100712.06;;;13.79;100.00
818;BME280;391;51.052;6.954;2023-08-08T05:34:18;100705.97;;;13.82;100.00
818;BME280;391;51.052;6.954;2023-08-08T05:36:22;100714.72;;;13.83;100.00
818;BME280;391;51.052;6.954;2023-08-08T05:38:25;100707.78;;;13.85;100.00
818;BME280;391;51.052;6.954;2023-08-08T05:40:29;100696.50;;;13.90;100.00
818;BME280;391;51.052;6.954;2023-08-08T05:42:32;100708.75;;;13.93;100.00
818;BME280;391;51.052;6.954;2023-08-08T05:44:36;100702.63;;;13.92;100.00
818;BME280;391;51.052;6.954;2023-08-08T05:46:39;100714.94;;;13.98;100.00
818;BME280;391;51.052;6.954;2023-08-08T05:48:43;100698.31;;;13.96;100.00
818;BME280;391;51.052;6.954;2023-08-08T05:50:49;100703.56;;;13.96;100.00
818;BME280;391;51.052;6.954;2023-08-08T05:52:53;100704.47;;;13.98;100.00
818;BME280;391;51.052;6.954;2023-08-08T05:54:56;100707.13;;;14.01;100.00
818;BME280;391;51.052;6.954;2023-08-08T05:57:01;100708.88;;;14.00;100.00
818;BME280;391;51.052;6.954;2023-08-08T05:59:05;100703.59;;;13.99;100.00
818;BME280;391;51.052;6.954;2023-08-08T06:01:09;100720.34;;;14.08;100.00
818;BME280;391;51.052;6.954;2023-08-08T06:03:14;100717.78;;;14.11;100.00
818;BME280;391;51.052;6.954;2023-08-08T06:05:18;100716.94;;;14.12;100.00
818;BME280;391;51.052;6.954;2023-08-08T06:07:22;100698.38;;;13.97;100.00
818;BME280;391;51.052;6.954;2023-08-08T06:09:26;100726.53;;;14.12;100.00
818;BME280;391;51.052;6.954;2023-08-08T06:11:30;100727.38;;;14.09;100.00
818;BME280;391;51.052;6.954;2023-08-08T06:13:34;100727.50;;;14.20;100.00
818;BME280;391;51.052;6.954;2023-08-08T06:15:37;100737.19;;;14.22;100.00
818;BME280;391;51.052;6.954;2023-08-08T06:17:40;100729.53;;;14.39;100.00
818;BME280;391;51.052;6.954;2023-08-08T06:19:43;100730.44;;;14.38;100.00
818;BME280;391;51.052;6.954;2023-08-08T06:21:47;100733.16;;;14.49;100.00
818;BME280;391;51.052;6.954;2023-08-08T06:23:52;100738.44;;;14.50;100.00
818;BME280;391;51.052;6.954;2023-08-08T06:25:57;100734.97;;;14.51;100.00
818;BME280;391;51.052;6.954;2023-08-08T06:28:00;100736.72;;;14.51;100.00
818;BME280;391;51.052;6.954;2023-08-08T06:30:05;100739.44;;;14.60;100.00
818;BME280;391;51.052;6.954;2023-08-08T06:32:10;100741.19;;;14.58;100.00
818;BME280;391;51.052;6.954;2023-08-08T06:34:14;100744.63;;;14.55;100.00
818;BME280;391;51.052;6.954;2023-08-08T06:36:17;100736.84;;;14.63;100.00
818;BME280;391;51.052;6.954;2023-08-08T06:38:20;100750.09;;;14.70;100.00
818;BME280;391;51.052;6.954;2023-08-08T06:40:24;100751.03;;;14.78;100.00
818;BME280;391;51.052;6.954;2023-08-08T06:42:28;100751.03;;;14.78;100.00
818;BME280;391;51.052;6.954;2023-08-08T06:44:41;100748.38;;;14.74;100.00
818;BME280;391;51.052;6.954;2023-08-08T06:46:45;100743.94;;;14.71;100.00
818;BME280;391;51.052;6.954;2023-08-08T06:48:48;100748.25;;;14.65;100.00
818;BME280;391;51.052;6.954;2023-08-08T06:50:53;100743.88;;;14.65;100.00
818;BME280;391;51.052;6.954;2023-08-08T06:52:57;100754.47;;;14.74;100.00
818;BME280;391;51.052;6.954;2023-08-08T06:54:59;100754.56;;;14.79;100.00
818;BME280;391;51.052;6.954;2023-08-08T06:57:04;100749.31;;;14.79;100.00
818;BME280;391;51.052;6.954;2023-08-08T06:59:08;100744.94;;;14.79;100.00
818;BME280;391;51.052;6.954;2023-08-08T07:01:10;100744.94;;;14.79;100.00
818;BME280;391;51.052;6.954;2023-08-08T07:03:14;100727.38;;;14.74;100.00
818;BME280;391;51.052;6.954;2023-08-08T07:05:19;100760.78;;;14.89;100.00
818;BME280;391;51.052;6.954;2023-08-08T07:07:22;100744.13;;;14.85;100.00
818;BME280;391;51.052;6.954;2023-08-08T07:09:25;100720.34;;;14.71;100.00
818;BME280;391;51.052;6.954;2023-08-08T07:11:29;100742.34;;;14.82;100.00
818;BME280;391;51.052;6.954;2023-08-08T07:13:35;100748.44;;;14.81;100.00
818;BME280;391;51.052;6.954;2023-08-08T07:15:39;100745.81;;;14.81;100.00
818;BME280;391;51.052;6.954;2023-08-08T07:17:43;100740.63;;;14.83;100.00
818;BME280;391;51.052;6.954;2023-08-08T07:19:47;100743.28;;;14.88;100.00
818;BME280;391;51.052;6.954;2023-08-08T07:21:49;100739.78;;;14.89;100.00
818;BME280;391;51.052;6.954;2023-08-08T07:23:53;100745.13;;;14.93;100.00
818;BME280;391;51.052;6.954;2023-08-08T07:25:57;100746.00;;;14.95;100.00
818;BME280;391;51.052;6.954;2023-08-08T07:28:00;100742.50;;;14.96;100.00
818;BME280;391;51.052;6.954;2023-08-08T07:30:07;100743.34;;;14.92;100.00
818;BME280;391;51.052;6.954;2023-08-08T07:32:10;100747.81;;;14.99;100.00
818;BME280;391;51.052;6.954;2023-08-08T07:34:13;100741.63;;;14.97;100.00
818;BME280;391;51.052;6.954;2023-08-08T07:36:16;100749.56;;;15.03;100.00
818;BME280;391;51.052;6.954;2023-08-08T07:38:20;100648.47;;;14.59;99.99
818;BME280;391;51.052;6.954;2023-08-08T07:40:23;100736.63;;;15.18;99.71
818;BME280;391;51.052;6.954;2023-08-08T07:42:27;100731.44;;;15.29;99.36
818;BME280;391;51.052;6.954;2023-08-08T07:44:30;100730.72;;;15.42;99.57
818;BME280;391;51.052;6.954;2023-08-08T07:46:38;100731.53;;;15.36;98.84
818;BME280;391;51.052;6.954;2023-08-08T07:48:42;100730.63;;;15.33;98.94
818;BME280;391;51.052;6.954;2023-08-08T07:50:45;100734.13;;;15.33;98.86
818;BME280;391;51.052;6.954;2023-08-08T07:52:49;100730.69;;;15.39;99.05
818;BME280;391;51.052;6.954;2023-08-08T07:54:52;100735.97;;;15.41;98.53
818;BME280;391;51.052;6.954;2023-08-08T07:56:56;100737.72;;;15.43;98.88
818;BME280;391;51.052;6.954;2023-08-08T07:58:59;100725.50;;;15.47;98.19
818;BME280;391;51.052;6.954;2023-08-08T08:01:03;100729.06;;;15.52;98.27
818;BME280;391;51.052;6.954;2023-08-08T08:03:10;100738.75;;;15.56;97.83
818;BME280;391;51.052;6.954;2023-08-08T08:05:14;100731.81;;;15.65;96.97
818;BME280;391;51.052;6.954;2023-08-08T08:07:17;100730.03;;;15.61;97.91
818;BME280;391;51.052;6.954;2023-08-08T08:09:20;100732.75;;;15.72;98.11
818;BME280;391;51.052;6.954;2023-08-08T08:11:23;100722.28;;;15.78;96.96
818;BME280;391;51.052;6.954;2023-08-08T08:13:26;100718.75;;;15.74;97.08
818;BME280;391;51.052;6.954;2023-08-08T08:15:30;100724.06;;;15.82;96.96
818;BME280;391;51.052;6.954;2023-08-08T08:17:33;100711.78;;;15.78;96.24
818;BME280;391;51.052;6.954;2023-08-08T08:19:38;100731.09;;;15.86;96.31
818;BME280;391;51.052;6.954;2023-08-08T08:21:42;100719.72;;;15.90;96.63
818;BME280;391;51.052;6.954;2023-08-08T08:23:45;100731.16;;;15.92;96.71
818;BME280;391;51.052;6.954;2023-08-08T08:25:49;100735.56;;;15.95;95.89
818;BME280;391;51.052;6.954;2023-08-08T08:27:53;100721.50;;;15.93;96.37
818;BME280;391;51.052;6.954;2023-08-08T08:29:56;100727.66;;;15.93;96.06
818;BME280;391;51.052;6.954;2023-08-08T08:31:58;100732.94;;;15.98;95.80
818;BME280;391;51.052;6.954;2023-08-08T08:34:03;100720.63;;;15.91;96.15
818;BME280;391;51.052;6.954;2023-08-08T08:36:07;100729.38;;;15.89;95.98
818;BME280;391;51.052;6.954;2023-08-08T08:38:13;100733.69;;;15.83;95.99
818;BME280;391;51.052;6.954;2023-08-08T08:40:17;100734.41;;;15.61;100.00
818;BME280;391;51.052;6.954;2023-08-08T08:42:21;100739.47;;;15.43;100.00
818;BME280;391;51.052;6.954;2023-08-08T08:44:26;100726.06;;;15.14;100.00
818;BME280;391;51.052;6.954;2023-08-08T08:46:31;100739.94;;;14.99;100.00
818;BME280;391;51.052;6.954;2023-08-08T08:48:35;100740.69;;;14.89;100.00
818;BME280;391;51.052;6.954;2023-08-08T08:50:39;100731.78;;;14.76;100.00
818;BME280;391;51.052;6.954;2023-08-08T08:52:45;100738.00;;;14.84;100.00
818;BME280;391;51.052;6.954;2023-08-08T08:54:48;100740.66;;;14.86;100.00
818;BME280;391;51.052;6.954;2023-08-08T08:56:53;100727.44;;;14.80;100.00
818;BME280;391;51.052;6.954;2023-08-08T08:58:56;100738.88;;;14.85;100.00
818;BME280;391;51.052;6.954;2023-08-08T09:01:00;100738.88;;;14.85;100.00
818;BME280;391;51.052;6.954;2023-08-08T09:03:04;100740.66;;;14.86;100.00
818;BME280;391;51.052;6.954;2023-08-08T09:05:08;100730.13;;;14.84;100.00
818;BME280;391;51.052;6.954;2023-08-08T09:07:14;100724.78;;;14.77;100.00
818;BME280;391;51.052;6.954;2023-08-08T09:09:21;100731.81;;;14.81;100.00
818;BME280;391;51.052;6.954;2023-08-08T09:11:25;100737.88;;;14.75;100.00
818;BME280;391;51.052;6.954;2023-08-08T09:13:35;100729.16;;;14.76;100.00
818;BME280;391;51.052;6.954;2023-08-08T09:15:39;100730.00;;;14.74;100.00
818;BME280;391;51.052;6.954;2023-08-08T09:17:44;100724.75;;;14.74;100.00
818;BME280;391;51.052;6.954;2023-08-08T09:19:53;100712.44;;;14.67;100.00
818;BME280;391;51.052;6.954;2023-08-08T09:21:56;100724.69;;;14.71;100.00
818;BME280;391;51.052;6.954;2023-08-08T09:24:00;100730.88;;;14.74;100.00
818;BME280;391;51.052;6.954;2023-08-08T09:26:06;100730.88;;;14.74;100.00
818;BME280;391;51.052;6.954;2023-08-08T09:28:10;100730.81;;;14.71;100.00
818;BME280;391;51.052;6.954;2023-08-08T09:30:15;100732.63;;;14.75;100.00
818;BME280;391;51.052;6.954;2023-08-08T09:32:18;100725.59;;;14.70;100.00
818;BME280;391;51.052;6.954;2023-08-08T09:34:24;100730.78;;;14.68;100.00
818;BME280;391;51.052;6.954;2023-08-08T09:36:28;100732.44;;;14.59;100.00
818;BME280;391;51.052;6.954;2023-08-08T09:38:35;100733.13;;;14.44;100.00
818;BME280;391;51.052;6.954;2023-08-08T09:40:38;100726.06;;;14.40;100.00
818;BME280;391;51.052;6.954;2023-08-08T09:42:43;100732.25;;;14.42;100.00
818;BME280;391;51.052;6.954;2023-08-08T09:44:47;100734.91;;;14.45;100.00
818;BME280;391;51.052;6.954;2023-08-08T09:46:50;100729.66;;;14.45;100.00
818;BME280;391;51.052;6.954;2023-08-08T09:48:55;100739.31;;;14.49;100.00
818;BME280;391;51.052;6.954;2023-08-08T09:50:58;100730.69;;;14.59;100.00
818;BME280;391;51.052;6.954;2023-08-08T09:53:03;100688.50;;;14.43;100.00
818;BME280;391;51.052;6.954;2023-08-08T09:55:08;100738.69;;;14.71;100.00
818;BME280;391;51.052;6.954;2023-08-08T09:57:14;100725.53;;;14.68;100.00
818;BME280;391;51.052;6.954;2023-08-08T09:59:18;100740.59;;;14.81;100.00
818;BME280;391;51.052;6.954;2023-08-08T10:01:21;100740.72;;;14.92;100.00
818;BME280;391;51.052;6.954;2023-08-08T10:03:24;100728.50;;;14.97;100.00
818;BME280;391;51.052;6.954;2023-08-08T10:05:28;100735.66;;;15.09;100.00
818;BME280;391;51.052;6.954;2023-08-08T10:07:33;100727.81;;;15.12;100.00
818;BME280;391;51.052;6.954;2023-08-08T10:09:36;100729.59;;;15.19;100.00
818;BME280;391;51.052;6.954;2023-08-08T10:11:41;100728.81;;;15.24;100.00
818;BME280;391;51.052;6.954;2023-08-08T10:13:50;100707.75;;;15.23;100.00
818;BME280;391;51.052;6.954;2023-08-08T10:15:55;100731.50;;;15.35;100.00
818;BME280;391;51.052;6.954;2023-08-08T10:18:00;100732.44;;;15.42;100.00
818;BME280;391;51.052;6.954;2023-08-08T10:20:05;100729.03;;;15.47;100.00
818;BME280;391;51.052;6.954;2023-08-08T10:22:13;100728.25;;;15.60;100.00
818;BME280;391;51.052;6.954;2023-08-08T10:24:20;100733.63;;;15.71;100.00
818;BME280;391;51.052;6.954;2023-08-08T10:26:27;100726.69;;;15.80;100.00
818;BME280;391;51.052;6.954;2023-08-08T10:28:32;100737.28;;;15.91;100.00
818;BME280;391;51.052;6.954;2023-08-08T10:30:43;100740.03;;;16.08;100.00
818;BME280;391;51.052;6.954;2023-08-08T10:32:50;100710.19;;;16.01;100.00
818;BME280;391;51.052;6.954;2023-08-08T10:34:55;100725.19;;;16.17;100.00
818;BME280;391;51.052;6.954;2023-08-08T10:37:04;100726.97;;;16.23;100.00
818;BME280;391;51.052;6.954;2023-08-08T10:39:11;100721.72;;;16.23;98.71
818;BME280;391;51.052;6.954;2023-08-08T10:41:19;100737.50;;;16.23;100.00
818;BME280;391;51.052;6.954;2023-08-08T10:43:25;100727.84;;;16.20;100.00
818;BME280;391;51.052;6.954;2023-08-08T10:45:30;100717.22;;;16.07;99.74
818;BME280;391;51.052;6.954;2023-08-08T10:47:35;100739.19;;;16.16;97.57
818;BME280;391;51.052;6.954;2023-08-08T10:49:41;100724.25;;;16.08;98.90
818;BME280;391;51.052;6.954;2023-08-08T10:51:47;100727.72;;;16.05;99.02
818;BME280;391;51.052;6.954;2023-08-08T10:53:51;100738.22;;;16.01;99.75
818;BME280;391;51.052;6.954;2023-08-08T10:55:58;100737.31;;;15.97;100.00
818;BME280;391;51.052;6.954;2023-08-08T10:58:05;100731.09;;;15.86;100.00
818;BME280;391;51.052;6.954;2023-08-08T11:00:19;100727.53;;;15.79;100.00
818;BME280;391;51.052;6.954;2023-08-08T11:02:24;100728.47;;;15.84;100.00
818;BME280;391;51.052;6.954;2023-08-08T11:04:28;100714.47;;;15.85;100.00
818;BME280;391;51.052;6.954;2023-08-08T11:06:34;100714.47;;;15.88;100.00
818;BME280;391;51.052;6.954;2023-08-08T11:08:38;100729.47;;;16.02;100.00
818;BME280;391;51.052;6.954;2023-08-08T11:10:41;100725.13;;;16.10;100.00
818;BME280;391;51.052;6.954;2023-08-08T11:12:54;100728.66;;;16.18;97.80
818;BME280;391;51.052;6.954;2023-08-08T11:14:58;100731.34;;;16.25;94.41
818;BME280;391;51.052;6.954;2023-08-08T11:17:03;100734.94;;;16.38;93.13
818;BME280;391;51.052;6.954;2023-08-08T11:19:10;100732.31;;;16.38;90.25
818;BME280;391;51.052;6.954;2023-08-08T11:21:14;100716.47;;;16.29;91.15